createdAt,value
2022-10-26T00:01:05.245Z,22.65
2022-10-26T00:03:34.001Z,23.50
2022-10-26T00:06:10.290Z,22.50
2022-10-26T00:08:38.568Z,24.50
2022-10-26T00:11:08.844Z,22.95
2022-10-26T00:13:38.064Z,21.55
2022-10-26T00:16:09.538Z,25.13
2022-10-26T00:18:39.855Z,26.85
2022-10-26T00:21:08.905Z,22.25
2022-10-26T00:23:36.803Z,23.25
2022-10-26T00:26:05.775Z,23.10
2022-10-26T00:28:35.224Z,23.17
2022-10-26T00:31:04.394Z,22.85
2022-10-26T00:33:32.540Z,22.58
2022-10-26T00:36:00.617Z,20.38
2022-10-26T00:38:28.800Z,24.63
2022-10-26T00:43:40.269Z,26.13
2022-10-26T00:46:12.850Z,25.92
2022-10-26T00:48:44.380Z,28.40
2022-10-26T00:51:19.565Z,28.03
2022-10-26T00:53:47.995Z,28.15
2022-10-26T00:56:16.149Z,25.73
2022-10-26T00:58:45.638Z,25.02
2022-10-26T01:01:13.651Z,26.58
2022-10-26T01:03:43.087Z,25.00
2022-10-26T01:06:13.041Z,28.33
2022-10-26T01:08:42.923Z,28.70
2022-10-26T01:11:11.852Z,25.67
2022-10-26T01:13:40.512Z,25.48
2022-10-26T01:16:26.898Z,27.67
2022-10-26T01:19:09.582Z,29.02
2022-10-26T01:24:45.698Z,27.40
2022-10-26T01:27:28.211Z,28.90
2022-10-26T01:30:34.838Z,27.63
2022-10-26T01:33:14.198Z,27.92
2022-10-26T01:35:50.163Z,25.83
2022-10-26T01:38:25.886Z,26.42
2022-10-26T01:40:59.556Z,27.77
2022-10-26T01:43:32.962Z,27.45
2022-10-26T01:46:04.494Z,24.60
2022-10-26T01:48:33.962Z,24.47
2022-10-26T01:51:04.795Z,24.80
2022-10-26T01:53:32.852Z,24.80
2022-10-26T01:56:02.519Z,25.27
2022-10-26T01:58:57.829Z,23.38
2022-10-26T02:02:02.738Z,24.05
2022-10-26T02:04:42.129Z,22.90
2022-10-26T02:07:19.444Z,23.98
2022-10-26T02:09:57.931Z,23.35
2022-10-26T02:12:36.625Z,25.40
2022-10-26T02:15:09.176Z,22.75
2022-10-26T02:17:47.295Z,22.90
2022-10-26T02:20:19.131Z,21.83
2022-10-26T02:22:50.072Z,22.25
2022-10-26T02:25:21.879Z,24.10
2022-10-26T02:27:54.788Z,24.60
2022-10-26T02:30:23.089Z,23.33
2022-10-26T02:32:55.932Z,21.38
2022-10-26T02:35:26.506Z,21.23
2022-10-26T02:37:57.004Z,21.20
2022-10-26T02:40:28.374Z,20.40
2022-10-26T02:43:00.935Z,19.25
2022-10-26T02:45:34.095Z,19.55
2022-10-26T02:48:03.485Z,19.23
2022-10-26T02:50:37.657Z,20.50
2022-10-26T02:53:12.861Z,20.30
2022-10-26T02:55:47.727Z,22.40
2022-10-26T02:58:20.714Z,25.80
2022-10-26T03:00:48.789Z,24.25
2022-10-26T03:03:19.252Z,21.08
2022-10-26T03:05:47.707Z,19.83
2022-10-26T03:08:15.673Z,19.33
2022-10-26T03:10:45.303Z,19.48
2022-10-26T03:13:14.659Z,22.02
2022-10-26T03:15:42.534Z,21.65
2022-10-26T03:18:10.417Z,20.55
2022-10-26T03:20:39.637Z,20.60
2022-10-26T03:23:07.842Z,21.23
2022-10-26T03:25:35.737Z,20.77
2022-10-26T03:28:05.439Z,23.15
2022-10-26T03:30:33.666Z,23.65
2022-10-26T03:33:01.528Z,23.50
2022-10-26T03:35:29.522Z,24.42
2022-10-26T03:37:58.722Z,26.00
2022-10-26T03:40:26.735Z,28.27
2022-10-26T03:42:54.635Z,26.55
2022-10-26T03:45:22.487Z,29.17
2022-10-26T03:47:51.303Z,29.80
2022-10-26T03:50:21.203Z,27.35
2022-10-26T03:52:50.723Z,28.65
2022-10-26T03:55:20.457Z,29.42
2022-10-26T03:57:48.425Z,28.85
2022-10-26T04:00:18.491Z,28.20
2022-10-26T04:02:48.800Z,27.35
2022-10-26T04:05:17.205Z,29.75
2022-10-26T04:07:45.204Z,31.33
2022-10-26T04:10:13.077Z,36.00
2022-10-26T04:12:42.342Z,31.70
2022-10-26T04:15:11.013Z,32.45
2022-10-26T04:17:38.962Z,28.98
2022-10-26T04:20:07.996Z,31.52
2022-10-26T04:22:36.530Z,30.67
2022-10-26T04:25:04.491Z,33.03
2022-10-26T04:27:32.535Z,33.92
2022-10-26T04:30:01.837Z,36.13
2022-10-26T04:32:29.684Z,35.95
2022-10-26T04:34:57.571Z,37.53
2022-10-26T04:37:25.485Z,38.80
2022-10-26T04:39:53.368Z,37.00
2022-10-26T04:42:23.510Z,35.25
2022-10-26T04:44:51.377Z,34.33
2022-10-26T04:47:20.618Z,33.83
2022-10-26T04:49:48.522Z,34.90
2022-10-26T04:52:16.431Z,36.07
2022-10-26T04:54:44.330Z,36.78
2022-10-26T04:57:12.242Z,34.75
2022-10-26T04:59:40.136Z,36.00
2022-10-26T05:02:08.131Z,35.28
2022-10-26T05:04:37.426Z,33.70
2022-10-26T05:07:05.380Z,37.33
2022-10-26T05:09:33.401Z,38.85
2022-10-26T05:12:01.286Z,37.33
2022-10-26T05:14:29.173Z,36.70
2022-10-26T05:16:57.933Z,35.80
2022-10-26T05:19:25.806Z,38.20
2022-10-26T05:21:55.054Z,37.63
2022-10-26T05:24:22.975Z,35.22
2022-10-26T05:26:50.851Z,34.17
2022-10-26T05:29:18.774Z,35.63
2022-10-26T05:31:46.665Z,34.17
2022-10-26T05:34:14.553Z,33.65
2022-10-26T05:36:42.463Z,32.58
2022-10-26T05:39:11.736Z,28.67
2022-10-26T05:41:39.626Z,29.58
2022-10-26T05:44:07.482Z,28.17
2022-10-26T05:46:35.433Z,26.77
2022-10-26T05:49:03.405Z,26.42
2022-10-26T05:51:33.449Z,26.83
2022-10-26T05:54:01.612Z,25.23
2022-10-26T05:56:37.337Z,25.35
2022-10-26T05:59:05.942Z,26.17
2022-10-26T06:01:49.575Z,22.55
2022-10-26T06:04:28.210Z,22.38
2022-10-26T06:06:57.589Z,22.10
2022-10-26T06:09:26.077Z,21.08
2022-10-26T06:11:55.993Z,22.58
2022-10-26T06:14:24.485Z,19.70
2022-10-26T06:17:13.027Z,21.55
2022-10-26T06:19:53.419Z,19.75
2022-10-26T06:22:35.093Z,20.17
2022-10-26T06:25:16.659Z,19.05
2022-10-26T06:27:52.963Z,20.90
2022-10-26T06:30:23.340Z,21.52
2022-10-26T06:33:01.114Z,21.50
2022-10-26T06:35:51.360Z,23.15
2022-10-26T06:38:21.577Z,22.45
2022-10-26T06:40:52.441Z,21.77
2022-10-26T06:43:26.506Z,22.58
2022-10-26T06:46:05.088Z,20.63
2022-10-26T06:48:50.617Z,22.83
2022-10-26T06:51:20.273Z,22.30
2022-10-26T06:53:53.025Z,19.90
2022-10-26T06:56:21.182Z,21.05
2022-10-26T06:58:53.401Z,22.02
2022-10-26T07:01:21.635Z,21.92
2022-10-26T07:03:49.634Z,23.63
2022-10-26T07:08:50.326Z,22.80
2022-10-26T07:11:18.209Z,24.05
2022-10-26T07:13:46.217Z,24.58
2022-10-26T07:16:15.447Z,24.98
2022-10-26T07:18:43.299Z,24.05
2022-10-26T07:21:11.476Z,24.48
2022-10-26T07:23:39.383Z,23.30
2022-10-26T07:26:07.450Z,22.67
2022-10-26T07:28:36.507Z,22.20
2022-10-26T07:31:05.542Z,26.05
2022-10-26T07:33:36.957Z,27.02
2022-10-26T07:36:10.910Z,26.50
2022-10-26T07:38:38.895Z,23.65
2022-10-26T07:41:07.460Z,25.52
2022-10-26T07:43:35.335Z,23.77
2022-10-26T07:46:03.329Z,23.70
2022-10-26T07:48:31.317Z,22.90
2022-10-26T07:51:03.215Z,25.45
2022-10-26T07:53:31.407Z,25.15
2022-10-26T07:55:59.726Z,26.17
2022-10-26T07:58:28.263Z,25.55
2022-10-26T08:00:56.923Z,26.83
2022-10-26T08:03:25.110Z,25.45
2022-10-26T08:05:55.838Z,22.38
2022-10-26T08:08:25.196Z,23.83
2022-10-26T08:10:53.113Z,25.02
2022-10-26T08:13:21.015Z,21.88
2022-10-26T08:15:49.168Z,22.42
2022-10-26T08:18:17.238Z,21.70
2022-10-26T08:20:45.147Z,21.15
2022-10-26T08:23:13.015Z,20.00
2022-10-26T08:25:42.263Z,19.75
2022-10-26T08:28:10.133Z,21.20
2022-10-26T08:30:38.135Z,22.45
2022-10-26T08:33:07.879Z,21.55
2022-10-26T08:35:35.871Z,18.55
2022-10-26T08:38:03.766Z,18.65
2022-10-26T08:40:34.222Z,17.02
2022-10-26T08:43:06.724Z,17.67
2022-10-26T08:45:38.965Z,15.00
2022-10-26T08:48:15.085Z,16.42
2022-10-26T08:50:46.551Z,15.65
2022-10-26T08:53:21.559Z,12.77
2022-10-26T08:55:54.698Z,11.93
2022-10-26T08:58:29.150Z,12.70
2022-10-26T09:00:59.492Z,12.05
2022-10-26T09:03:27.365Z,13.52
2022-10-26T09:06:11.896Z,14.27
2022-10-26T09:08:51.225Z,12.35
2022-10-26T09:11:27.070Z,13.30
2022-10-26T09:14:05.351Z,13.38
2022-10-26T09:16:42.870Z,15.23
2022-10-26T09:19:35.902Z,15.07
2022-10-26T09:22:11.314Z,13.15
2022-10-26T09:24:43.337Z,11.07
2022-10-26T09:27:18.538Z,11.77
2022-10-26T09:29:49.151Z,12.70
2022-10-26T09:32:19.794Z,12.13
2022-10-26T09:34:51.394Z,11.00
2022-10-26T09:37:22.146Z,10.63
2022-10-26T09:39:57.237Z,10.27
2022-10-26T09:42:31.181Z,11.88
2022-10-26T09:45:06.567Z,10.27
2022-10-26T09:47:37.984Z,9.50
2022-10-26T09:50:19.725Z,11.33
2022-10-26T09:52:47.972Z,11.73
2022-10-26T09:55:16.743Z,13.05
2022-10-26T09:57:47.297Z,11.77
2022-10-26T10:00:19.401Z,14.82
2022-10-26T10:02:51.929Z,14.57
2022-10-26T10:08:21.058Z,9.45
2022-10-26T10:11:03.170Z,7.73
2022-10-26T10:13:33.321Z,12.00
2022-10-26T10:16:07.358Z,10.35
2022-10-26T10:18:36.546Z,10.23
2022-10-26T10:21:05.902Z,9.05
2022-10-26T10:23:35.332Z,12.68
2022-10-26T10:26:06.811Z,9.18
2022-10-26T10:28:35.665Z,11.10
2022-10-26T10:31:07.120Z,11.23
2022-10-26T10:33:40.286Z,11.23
2022-10-26T10:36:12.823Z,9.77
2022-10-26T10:38:43.275Z,15.75
2022-10-26T10:41:20.954Z,11.13
2022-10-26T10:43:51.393Z,9.05
2022-10-26T10:46:23.654Z,11.20
2022-10-26T10:51:25.080Z,11.20
2022-10-26T10:53:55.343Z,10.07
2022-10-26T10:56:32.893Z,8.95
2022-10-26T10:59:21.043Z,8.60
2022-10-26T11:01:56.912Z,9.75
2022-10-26T11:04:58.782Z,7.95
2022-10-26T11:07:27.827Z,9.27
2022-10-26T11:09:58.580Z,9.05
2022-10-26T11:12:30.583Z,9.05
2022-10-26T11:15:02.538Z,11.90
2022-10-26T11:17:34.639Z,8.85
2022-10-26T11:20:10.048Z,8.82
2022-10-26T11:22:44.599Z,10.05
2022-10-26T11:25:18.770Z,12.02
2022-10-26T11:27:51.852Z,11.10
2022-10-26T11:30:22.217Z,10.25
2022-10-26T11:32:56.192Z,8.63
2022-10-26T11:35:28.906Z,8.95
2022-10-26T11:38:05.558Z,10.15
2022-10-26T11:40:43.489Z,9.75
2022-10-26T11:43:17.192Z,11.07
2022-10-26T11:45:47.725Z,8.65
2022-10-26T11:48:23.954Z,10.98
2022-10-26T11:50:55.891Z,8.88
2022-10-26T11:53:29.478Z,5.95
2022-10-26T11:55:59.245Z,8.75
2022-10-26T11:58:28.736Z,6.38
2022-10-26T12:01:01.084Z,5.28
2022-10-26T12:03:35.414Z,8.43
2022-10-26T12:06:03.659Z,10.57
2022-10-26T12:08:36.735Z,6.53
2022-10-26T12:11:10.726Z,6.97
2022-10-26T12:13:43.809Z,7.85
2022-10-26T12:16:23.106Z,11.40
2022-10-26T12:18:58.931Z,11.70
2022-10-26T12:21:29.554Z,9.98
2022-10-26T12:23:59.539Z,8.70
2022-10-26T12:26:54.925Z,11.25
2022-10-26T12:29:32.551Z,8.07
2022-10-26T12:32:00.821Z,9.20
2022-10-26T12:35:01.410Z,8.38
2022-10-26T12:37:37.036Z,9.48
2022-10-26T12:40:40.721Z,9.43
2022-10-26T12:43:37.372Z,8.68
2022-10-26T12:46:45.351Z,16.35
2022-10-26T12:49:49.158Z,6.75
2022-10-26T12:52:27.476Z,9.25
2022-10-26T12:55:28.188Z,9.88
2022-10-26T12:58:08.453Z,5.82
2022-10-26T13:00:43.707Z,7.07
2022-10-26T13:03:24.495Z,7.82
2022-10-26T13:06:18.184Z,7.22
2022-10-26T13:08:49.927Z,7.72
2022-10-26T13:11:21.837Z,7.53
2022-10-26T13:13:55.306Z,7.22
2022-10-26T13:16:26.276Z,7.82
2022-10-26T13:18:54.346Z,8.20
2022-10-26T13:21:24.704Z,6.85
2022-10-26T13:24:02.321Z,7.93
2022-10-26T13:26:31.621Z,8.75
2022-10-26T13:29:00.445Z,6.45
2022-10-26T13:31:56.941Z,5.60
2022-10-26T13:34:27.810Z,6.40
2022-10-26T13:37:06.379Z,6.88
2022-10-26T13:39:38.716Z,9.55
2022-10-26T13:42:08.711Z,7.20
2022-10-26T13:44:43.003Z,8.02
2022-10-26T13:47:16.139Z,7.88
2022-10-26T13:49:47.123Z,8.20
2022-10-26T13:52:17.794Z,7.47
2022-10-26T13:54:49.976Z,6.60
2022-10-26T13:57:22.014Z,8.48
2022-10-26T14:02:23.205Z,6.20
2022-10-26T14:04:55.109Z,6.22
2022-10-26T14:07:26.661Z,6.03
2022-10-26T14:09:57.973Z,10.50
2022-10-26T14:12:28.941Z,7.22
2022-10-26T14:15:02.844Z,7.63
2022-10-26T14:17:30.887Z,5.82
2022-10-26T14:19:59.014Z,5.95
2022-10-26T14:22:30.229Z,8.13
2022-10-26T14:25:01.603Z,6.33
2022-10-26T14:27:38.918Z,9.10
2022-10-26T14:30:23.705Z,7.35
2022-10-26T14:32:52.244Z,7.07
2022-10-26T14:35:25.443Z,8.75
2022-10-26T14:37:56.044Z,7.30
2022-10-26T14:40:28.175Z,4.53
2022-10-26T14:45:47.551Z,10.05
2022-10-26T14:48:23.805Z,5.55
2022-10-26T14:51:02.794Z,5.57
2022-10-26T14:53:36.650Z,5.53
2022-10-26T14:56:17.571Z,7.55
2022-10-26T14:58:45.867Z,9.00
2022-10-26T15:01:25.163Z,7.05
2022-10-26T15:03:58.166Z,6.15
2022-10-26T15:06:39.356Z,10.38
2022-10-26T15:09:07.758Z,9.35
2022-10-26T15:11:49.713Z,8.73
2022-10-26T15:14:18.616Z,8.38
2022-10-26T15:16:53.728Z,6.18
2022-10-26T15:19:24.054Z,7.53
2022-10-26T15:21:53.394Z,6.80
2022-10-26T15:24:37.485Z,10.35
2022-10-26T15:27:15.889Z,6.15
2022-10-26T15:29:45.716Z,11.07
2022-10-26T15:32:38.947Z,6.22
2022-10-26T15:35:25.184Z,9.88
2022-10-26T15:37:55.082Z,6.45
2022-10-26T15:40:23.822Z,6.45
2022-10-26T15:42:54.892Z,10.20
2022-10-26T15:45:24.639Z,7.57
2022-10-26T15:47:53.679Z,6.65
2022-10-26T15:50:23.518Z,8.25
2022-10-26T15:52:56.046Z,11.25
2022-10-26T15:55:23.987Z,7.28
2022-10-26T15:57:53.405Z,5.03
2022-10-26T16:00:21.689Z,10.52
2022-10-26T16:02:50.136Z,8.50
2022-10-26T16:05:18.529Z,9.30
2022-10-26T16:07:48.818Z,5.50
2022-10-26T16:10:21.531Z,10.88
2022-10-26T16:12:50.644Z,6.90
2022-10-26T16:15:22.192Z,8.40
2022-10-26T16:17:50.922Z,9.73
2022-10-26T16:20:22.806Z,11.15
2022-10-26T16:22:52.158Z,10.13
2022-10-26T16:25:22.758Z,9.55
2022-10-26T16:27:51.299Z,9.98
2022-10-26T16:30:23.692Z,10.07
2022-10-26T16:32:54.057Z,11.35
2022-10-26T16:35:22.030Z,10.77
2022-10-26T16:37:50.074Z,8.93
2022-10-26T16:40:18.055Z,9.80
2022-10-26T16:42:46.686Z,12.45
2022-10-26T16:45:16.070Z,11.63
2022-10-26T16:47:45.410Z,9.77
2022-10-26T16:50:14.885Z,7.72
2022-10-26T16:52:42.812Z,10.07
2022-10-26T16:55:11.014Z,9.48
2022-10-26T16:57:39.148Z,8.98
2022-10-26T17:00:08.356Z,13.07
2022-10-26T17:02:36.540Z,9.63
2022-10-26T17:05:07.651Z,13.88
2022-10-26T17:07:35.861Z,10.70
2022-10-26T17:10:04.226Z,11.60
2022-10-26T17:12:32.200Z,12.73
2022-10-26T17:15:01.461Z,12.55
2022-10-26T17:17:29.351Z,9.75
2022-10-26T17:19:57.394Z,6.97
2022-10-26T17:22:26.637Z,9.05
2022-10-26T17:24:54.646Z,9.88
2022-10-26T17:27:23.098Z,11.90
2022-10-26T17:29:50.987Z,14.98
2022-10-26T17:32:19.063Z,12.05
2022-10-26T17:34:46.984Z,11.27
2022-10-26T17:37:15.038Z,12.30
2022-10-26T17:39:44.285Z,8.98
2022-10-26T17:42:12.154Z,13.02
2022-10-26T17:44:40.072Z,9.77
2022-10-26T17:47:08.761Z,9.55
2022-10-26T17:49:36.863Z,11.10
2022-10-26T17:52:05.956Z,14.73
2022-10-26T17:54:33.868Z,11.43
2022-10-26T17:57:03.304Z,11.30
2022-10-26T17:59:31.261Z,12.13
2022-10-26T18:01:59.347Z,12.25
2022-10-26T18:04:27.475Z,12.98
2022-10-26T18:06:55.358Z,12.77
2022-10-26T18:09:23.388Z,13.70
2022-10-26T18:11:54.850Z,12.20
2022-10-26T18:14:25.346Z,15.02
2022-10-26T18:16:53.289Z,15.15
2022-10-26T18:19:21.306Z,11.43
2022-10-26T18:21:49.297Z,9.40
2022-10-26T18:24:17.247Z,11.10
2022-10-26T18:26:45.208Z,10.95
2022-10-26T18:29:14.516Z,10.93
2022-10-26T18:31:45.970Z,13.40
2022-10-26T18:34:14.203Z,12.63
2022-10-26T18:36:42.565Z,13.45
2022-10-26T18:39:10.633Z,10.13
2022-10-26T18:41:38.517Z,10.30
2022-10-26T18:44:06.933Z,8.23
2022-10-26T18:46:40.733Z,9.10
2022-10-26T18:49:10.641Z,13.52
2022-10-26T18:51:38.600Z,12.98
2022-10-26T18:54:06.854Z,11.68
2022-10-26T18:56:35.023Z,10.60
2022-10-26T18:59:02.975Z,11.13
2022-10-26T19:01:32.595Z,10.23
2022-10-26T19:04:02.254Z,9.23
2022-10-26T19:06:35.467Z,9.07
2022-10-26T19:09:04.387Z,11.85
2022-10-26T19:11:32.991Z,11.25
2022-10-26T19:14:01.222Z,10.02
2022-10-26T19:16:48.132Z,12.75
2022-10-26T19:19:17.064Z,11.23
2022-10-26T19:21:47.200Z,15.35
2022-10-26T19:24:16.766Z,14.90
2022-10-26T19:26:45.094Z,15.82
2022-10-26T19:29:15.376Z,11.40
2022-10-26T19:31:44.679Z,14.90
2022-10-26T19:34:15.859Z,17.13
2022-10-26T19:36:46.357Z,20.10
2022-10-26T19:39:17.979Z,23.17
2022-10-26T19:41:48.776Z,23.98
2022-10-26T19:44:17.370Z,20.75
2022-10-26T19:46:47.527Z,18.10
2022-10-26T19:49:17.498Z,18.13
2022-10-26T19:51:46.853Z,15.30
2022-10-26T19:54:16.259Z,18.50
2022-10-26T19:56:44.184Z,16.02
2022-10-26T19:59:12.568Z,14.73
2022-10-26T20:01:40.779Z,11.15
2022-10-26T20:04:08.694Z,13.93
2022-10-26T20:06:36.786Z,12.40
2022-10-26T20:09:05.355Z,11.77
2022-10-26T20:11:36.713Z,12.85
2022-10-26T20:14:07.501Z,11.68
2022-10-26T20:16:35.409Z,15.40
2022-10-26T20:19:03.307Z,13.27
2022-10-26T20:21:32.059Z,14.48
2022-10-26T20:24:00.066Z,15.18
2022-10-26T20:26:28.645Z,16.92
2022-10-26T20:28:58.099Z,12.40
2022-10-26T20:31:26.145Z,12.75
2022-10-26T20:33:54.242Z,10.63
2022-10-26T20:36:23.669Z,11.82
2022-10-26T20:38:52.229Z,15.38
2022-10-26T20:41:20.858Z,13.73
2022-10-26T20:43:50.608Z,19.17
2022-10-26T20:46:24.374Z,15.87
2022-10-26T20:48:55.466Z,15.38
2022-10-26T20:51:35.908Z,16.80
2022-10-26T20:54:08.149Z,15.80
2022-10-26T20:56:40.057Z,16.45
2022-10-26T20:59:14.439Z,15.13
2022-10-26T21:01:46.606Z,16.58
2022-10-26T21:06:45.805Z,15.90
2022-10-26T21:09:13.915Z,16.83
2022-10-26T21:11:41.890Z,15.68
2022-10-26T21:14:09.743Z,18.30
2022-10-26T21:16:37.715Z,16.85
2022-10-26T21:19:08.321Z,16.63
2022-10-26T21:21:39.398Z,15.80
2022-10-26T21:24:07.906Z,17.45
2022-10-26T21:26:38.463Z,13.77
2022-10-26T21:29:06.776Z,17.95
2022-10-26T21:31:36.886Z,20.20
2022-10-26T21:34:06.441Z,18.40
2022-10-26T21:36:34.470Z,18.40
2022-10-26T21:39:02.390Z,17.25
2022-10-26T21:41:30.697Z,18.23
2022-10-26T21:44:08.641Z,19.95
2022-10-26T21:46:38.920Z,20.90
2022-10-26T21:49:08.345Z,20.55
2022-10-26T21:51:36.419Z,24.40
2022-10-26T21:54:07.166Z,28.50
2022-10-26T21:56:35.366Z,29.88
2022-10-26T21:59:03.250Z,29.10
2022-10-26T22:01:31.200Z,28.45
2022-10-26T22:03:59.284Z,28.27
2022-10-26T22:06:31.175Z,30.75
2022-10-26T22:09:01.007Z,28.63
2022-10-26T22:11:28.962Z,27.10
2022-10-26T22:13:56.843Z,30.17
2022-10-26T22:16:29.238Z,29.92
2022-10-26T22:19:00.263Z,28.27
2022-10-26T22:21:33.185Z,32.90
2022-10-26T22:24:04.303Z,28.75
2022-10-26T22:26:36.412Z,30.42
2022-10-26T22:29:06.915Z,25.90
2022-10-26T22:31:39.332Z,27.75
2022-10-26T22:34:09.218Z,31.38
2022-10-26T22:36:38.498Z,29.55
2022-10-26T22:39:06.638Z,30.88
2022-10-26T22:41:34.630Z,32.95
2022-10-26T22:44:02.558Z,29.73
2022-10-26T22:46:30.410Z,29.48
2022-10-26T22:49:00.178Z,28.75
2022-10-26T22:51:30.246Z,30.20
2022-10-26T22:54:01.591Z,32.53
2022-10-26T22:56:31.297Z,33.08
2022-10-26T22:58:59.794Z,31.42
2022-10-26T23:01:29.303Z,32.45
2022-10-26T23:03:57.520Z,30.02
2022-10-26T23:06:27.738Z,27.80
2022-10-26T23:08:55.887Z,33.17
2022-10-26T23:11:26.978Z,35.90
2022-10-26T23:13:55.629Z,37.30
2022-10-26T23:16:24.035Z,34.70
2022-10-26T23:18:53.258Z,33.38
2022-10-26T23:21:22.791Z,32.75
2022-10-26T23:23:50.818Z,35.45
2022-10-26T23:26:21.240Z,32.78
2022-10-26T23:28:51.510Z,34.85
2022-10-26T23:31:21.293Z,37.55
2022-10-26T23:33:51.874Z,37.63
2022-10-26T23:36:20.588Z,38.03
2022-10-26T23:38:49.299Z,33.67
2022-10-26T23:41:17.265Z,40.05
2022-10-26T23:43:45.173Z,45.08
2022-10-26T23:46:14.515Z,41.03
2022-10-26T23:48:42.693Z,34.88
2022-10-26T23:51:10.593Z,34.08
2022-10-26T23:53:38.515Z,36.70
2022-10-26T23:56:07.064Z,39.50
2022-10-26T23:58:34.959Z,40.63
